CDT,Max TemperatureF,Mean TemperatureF,Min TemperatureF,Max Dew PointF,MeanDew PointF,Min DewpointF,Max Humidity, Mean Humidity, Min Humidity, Max Sea Level PressureIn, Mean Sea Level PressureIn, Min Sea Level PressureIn, Max VisibilityMiles, Mean VisibilityMiles, Min VisibilityMiles, Max Wind SpeedMPH, Mean Wind SpeedMPH, Max Gust SpeedMPH,PrecipitationIn, CloudCover, Events, WindDirDegrees
2013-6-1,86,80,73,72,69,66,83,71,55,29.96,29.84,29.74,10,10,10,21,14,29,0.00,7,Rain-Thunderstorm,203
2013-6-2,82,73,62,66,54,43,83,55,26,30.07,30.00,29.94,10,10,10,14,7,18,0.00,1,Thunderstorm,356
2013-6-3,86,72,59,61,57,54,88,62,33,30.01,29.95,29.87,10,10,10,8,3,,0.00,0,,114
2013-6-4,89,78,66,66,63,61,83,62,40,30.07,29.89,29.83,10,10,10,18,7,22,0.00,1,Thunderstorm,124
2013-6-5,89,79,69,70,66,63,88,66,40,29.99,29.87,29.79,10,10,10,20,5,25,0.00,1,Rain-Thunderstorm,120
2013-6-6,77,72,66,70,65,63,88,80,61,29.95,29.88,29.81,10,10,3,17,4,36,0.56,4,Rain-Thunderstorm,7
2013-6-7,82,71,60,63,56,48,94,62,30,30.01,29.95,29.90,10,10,10,13,5,18,0.00,0,,355
2013-6-8,86,72,57,63,58,54,94,63,33,29.96,29.90,29.83,10,10,10,14,3,20,0.00,0,,137
2013-6-9,87,78,68,70,65,63,94,71,43,29.94,29.90,29.86,10,10,1,14,5,29,0.83,3,Rain-Thunderstorm,192
2013-6-10,95,82,68,70,66,61,94,66,32,29.98,29.95,29.92,10,10,10,14,5,20,0.00,0,,186
2013-6-11,91,82,73,72,68,64,78,57,41,30.04,29.98,29.94,10,10,10,16,9,21,0.00,1,,170
2013-6-12,91,82,73,72,69,64,94,67,41,30.08,30.01,29.94,10,10,7,17,8,21,0.00,1,,183
2013-6-13,95,83,71,73,69,64,94,64,36,30.07,29.99,29.91,10,10,10,14,3,20,0.00,0,,216
2013-6-14,95,84,73,73,68,61,88,60,32,30.00,29.95,29.90,10,10,10,8,2,,0.00,1,,186
2013-6-15,89,81,73,73,72,70,94,74,52,30.02,29.97,29.91,10,10,2,10,4,,0.50,2,Rain-Thunderstorm,128
2013-6-16,91,82,73,73,70,64,94,68,41,30.02,29.96,29.89,10,10,7,13,4,17,0.00,1,,174
2013-6-17,87,78,68,75,69,63,89,73,55,30.05,29.93,29.88,10,10,1,22,6,34,0.62,3,Rain-Thunderstorm,164
2013-6-18,80,76,71,72,68,66,94,79,65,30.02,29.96,29.91,10,10,7,12,3,,0.03,3,Rain-Thunderstorm,8
2013-6-19,89,78,68,72,69,66,94,74,46,30.02,29.97,29.91,10,7,0,10,3,,0.00,3,Fog,117
2013-6-20,91,82,73,72,69,63,94,64,38,30.07,30.01,29.96,10,10,10,14,8,18,0.00,0,,155
2013-6-21,91,82,73,72,68,63,88,62,38,30.10,30.04,29.99,10,10,7,15,8,20,0.00,0,,160
2013-6-22,91,82,73,70,68,64,88,61,41,30.07,30.00,29.92,10,10,10,14,8,23,0.00,0,,156
2013-6-23,91,83,75,70,67,63,78,59,38,30.02,29.96,29.91,10,10,10,17,9,23,0.00,0,,154
2013-6-24,91,83,75,70,68,63,83,60,38,30.06,29.99,29.92,10,10,7,16,9,21,0.00,2,,158
2013-6-25,95,85,75,70,67,61,83,56,32,30.03,29.94,29.85,10,10,7,20,11,26,0.00,2,,168
2013-6-26,96,86,75,70,67,63,78,57,34,30.00,29.92,29.87,10,10,10,18,10,23,0.00,1,,176
2013-6-27,96,86,75,70,67,63,78,58,32,30.03,29.96,29.88,10,10,10,13,3,17,0.00,0,,200
2013-6-28,100,86,73,68,64,59,83,50,28,29.95,29.89,29.83,10,10,10,12,3,17,0.00,0,,299
2013-6-29,95,83,71,66,60,52,83,50,23,29.91,29.86,29.81,10,10,10,15,3,20,0.00,0,,356
2013-6-30,87,78,69,64,55,46,78,47,24,29.94,29.89,29.83,10,10,10,16,4,24,0.00,1,,359